sensor_id;sensor_type;location;lat;lon;timestamp;temperature;humidity
6662;DHT22;3367;48.714;8.994;2022-07-06T00:02:00;16.20;1.00
6662;DHT22;3367;48.714;8.994;2022-07-06T00:04:27;16.10;1.00
6662;DHT22;3367;48.714;8.994;2022-07-06T00:06:53;16.20;1.00
6662;DHT22;3367;48.714;8.994;2022-07-06T00:09:20;16.10;1.00
6662;DHT22;3367;48.714;8.994;2022-07-06T00:11:47;16.00;1.00
6662;DHT22;3367;48.714;8.994;2022-07-06T00:14:15;16.00;1.00
6662;DHT22;3367;48.714;8.994;2022-07-06T00:16:41;16.00;1.00
6662;DHT22;3367;48.714;8.994;2022-07-06T00:19:08;16.10;1.00
6662;DHT22;3367;48.714;8.994;2022-07-06T00:21:35;16.10;1.00
6662;DHT22;3367;48.714;8.994;2022-07-06T00:24:02;16.00;1.00
6662;DHT22;3367;48.714;8.994;2022-07-06T00:26:29;16.00;1.00
6662;DHT22;3367;48.714;8.994;2022-07-06T00:28:56;16.20;1.00
6662;DHT22;3367;48.714;8.994;2022-07-06T00:31:24;16.00;1.00
6662;DHT22;3367;48.714;8.994;2022-07-06T00:33:50;16.00;1.00
6662;DHT22;3367;48.714;8.994;2022-07-06T00:36:17;16.00;1.00
6662;DHT22;3367;48.714;8.994;2022-07-06T00:38:44;16.00;1.00
6662;DHT22;3367;48.714;8.994;2022-07-06T00:41:12;15.90;1.00
6662;DHT22;3367;48.714;8.994;2022-07-06T00:43:52;15.80;1.00
6662;DHT22;3367;48.714;8.994;2022-07-06T00:46:25;15.80;1.00
6662;DHT22;3367;48.714;8.994;2022-07-06T00:48:53;15.70;1.00
6662;DHT22;3367;48.714;8.994;2022-07-06T00:51:20;15.70;1.00
6662;DHT22;3367;48.714;8.994;2022-07-06T00:53:48;15.60;1.00
6662;DHT22;3367;48.714;8.994;2022-07-06T00:56:15;15.60;1.00
6662;DHT22;3367;48.714;8.994;2022-07-06T00:58:42;15.60;1.00
6662;DHT22;3367;48.714;8.994;2022-07-06T01:01:09;15.60;1.00
6662;DHT22;3367;48.714;8.994;2022-07-06T01:03:37;15.60;1.00
6662;DHT22;3367;48.714;8.994;2022-07-06T01:06:05;15.60;1.00
6662;DHT22;3367;48.714;8.994;2022-07-06T01:08:32;15.60;1.00
6662;DHT22;3367;48.714;8.994;2022-07-06T01:10:59;15.60;1.00
6662;DHT22;3367;48.714;8.994;2022-07-06T01:13:26;15.50;1.00
6662;DHT22;3367;48.714;8.994;2022-07-06T01:15:53;15.60;1.00
6662;DHT22;3367;48.714;8.994;2022-07-06T01:18:20;15.50;1.00
6662;DHT22;3367;48.714;8.994;2022-07-06T01:20:49;15.50;1.00
6662;DHT22;3367;48.714;8.994;2022-07-06T01:23:15;15.50;1.00
6662;DHT22;3367;48.714;8.994;2022-07-06T01:25:42;15.50;1.00
6662;DHT22;3367;48.714;8.994;2022-07-06T01:28:09;15.40;1.00
6662;DHT22;3367;48.714;8.994;2022-07-06T01:30:36;15.30;1.00
6662;DHT22;3367;48.714;8.994;2022-07-06T01:33:03;15.40;1.00
6662;DHT22;3367;48.714;8.994;2022-07-06T01:35:31;15.40;1.00
6662;DHT22;3367;48.714;8.994;2022-07-06T01:38:01;15.40;1.00
6662;DHT22;3367;48.714;8.994;2022-07-06T01:40:28;15.40;1.00
6662;DHT22;3367;48.714;8.994;2022-07-06T01:42:55;15.40;1.00
6662;DHT22;3367;48.714;8.994;2022-07-06T01:45:21;15.40;1.00
6662;DHT22;3367;48.714;8.994;2022-07-06T01:47:48;15.40;1.00
6662;DHT22;3367;48.714;8.994;2022-07-06T01:50:15;15.40;1.00
6662;DHT22;3367;48.714;8.994;2022-07-06T01:52:42;15.40;1.00
6662;DHT22;3367;48.714;8.994;2022-07-06T01:55:10;15.50;1.00
6662;DHT22;3367;48.714;8.994;2022-07-06T01:57:36;15.40;1.00
6662;DHT22;3367;48.714;8.994;2022-07-06T02:00:05;15.40;1.00
6662;DHT22;3367;48.714;8.994;2022-07-06T02:02:33;15.40;1.00
6662;DHT22;3367;48.714;8.994;2022-07-06T02:04:59;15.40;1.00
6662;DHT22;3367;48.714;8.994;2022-07-06T02:07:26;15.40;1.00
6662;DHT22;3367;48.714;8.994;2022-07-06T02:09:53;15.40;1.00
6662;DHT22;3367;48.714;8.994;2022-07-06T02:12:21;15.40;1.00
6662;DHT22;3367;48.714;8.994;2022-07-06T02:14:47;15.40;1.00
6662;DHT22;3367;48.714;8.994;2022-07-06T02:17:14;15.40;1.00
6662;DHT22;3367;48.714;8.994;2022-07-06T02:19:41;15.30;1.00
6662;DHT22;3367;48.714;8.994;2022-07-06T02:22:07;15.30;1.00
6662;DHT22;3367;48.714;8.994;2022-07-06T02:24:34;15.20;1.00
6662;DHT22;3367;48.714;8.994;2022-07-06T02:27:01;15.20;1.00
6662;DHT22;3367;48.714;8.994;2022-07-06T02:29:29;15.10;1.00
6662;DHT22;3367;48.714;8.994;2022-07-06T02:31:55;15.10;1.00
6662;DHT22;3367;48.714;8.994;2022-07-06T02:34:22;15.10;1.00
6662;DHT22;3367;48.714;8.994;2022-07-06T02:36:49;15.00;1.00
6662;DHT22;3367;48.714;8.994;2022-07-06T02:39:16;15.00;1.00
6662;DHT22;3367;48.714;8.994;2022-07-06T02:41:42;15.00;1.00
6662;DHT22;3367;48.714;8.994;2022-07-06T02:44:09;14.90;1.00
6662;DHT22;3367;48.714;8.994;2022-07-06T02:46:37;14.90;1.00
6662;DHT22;3367;48.714;8.994;2022-07-06T02:49:04;14.80;1.00
6662;DHT22;3367;48.714;8.994;2022-07-06T02:51:30;14.80;1.00
6662;DHT22;3367;48.714;8.994;2022-07-06T02:53:57;14.70;1.00
6662;DHT22;3367;48.714;8.994;2022-07-06T02:56:24;14.70;1.00
6662;DHT22;3367;48.714;8.994;2022-07-06T02:58:50;14.70;1.00
6662;DHT22;3367;48.714;8.994;2022-07-06T03:01:17;14.70;1.00
6662;DHT22;3367;48.714;8.994;2022-07-06T03:03:45;14.60;1.00
6662;DHT22;3367;48.714;8.994;2022-07-06T03:06:12;14.60;1.00
6662;DHT22;3367;48.714;8.994;2022-07-06T03:08:38;14.50;1.00
6662;DHT22;3367;48.714;8.994;2022-07-06T03:11:05;14.50;1.00
6662;DHT22;3367;48.714;8.994;2022-07-06T03:13:32;14.40;1.00
6662;DHT22;3367;48.714;8.994;2022-07-06T03:15:58;14.40;1.00
6662;DHT22;3367;48.714;8.994;2022-07-06T03:18:25;14.40;1.00
6662;DHT22;3367;48.714;8.994;2022-07-06T03:20:53;14.30;1.00
6662;DHT22;3367;48.714;8.994;2022-07-06T03:23:20;14.30;1.00
6662;DHT22;3367;48.714;8.994;2022-07-06T03:25:47;14.30;1.00
6662;DHT22;3367;48.714;8.994;2022-07-06T03:28:13;14.30;1.00
6662;DHT22;3367;48.714;8.994;2022-07-06T03:30:40;14.30;1.00
6662;DHT22;3367;48.714;8.994;2022-07-06T03:33:07;14.30;1.00
6662;DHT22;3367;48.714;8.994;2022-07-06T03:35:33;14.30;1.00
6662;DHT22;3367;48.714;8.994;2022-07-06T03:38:01;14.40;1.00
6662;DHT22;3367;48.714;8.994;2022-07-06T03:40:29;14.30;1.00
6662;DHT22;3367;48.714;8.994;2022-07-06T03:42:55;14.40;1.00
6662;DHT22;3367;48.714;8.994;2022-07-06T03:45:22;14.30;1.00
6662;DHT22;3367;48.714;8.994;2022-07-06T03:47:49;14.40;1.00
6662;DHT22;3367;48.714;8.994;2022-07-06T03:50:15;14.40;1.00
6662;DHT22;3367;48.714;8.994;2022-07-06T03:52:42;14.30;1.00
6662;DHT22;3367;48.714;8.994;2022-07-06T03:55:11;14.30;1.00
6662;DHT22;3367;48.714;8.994;2022-07-06T03:57:38;14.50;1.00
6662;DHT22;3367;48.714;8.994;2022-07-06T04:00:07;14.30;1.00
6662;DHT22;3367;48.714;8.994;2022-07-06T04:02:34;14.30;1.00
6662;DHT22;3367;48.714;8.994;2022-07-06T04:05:01;14.30;1.00
6662;DHT22;3367;48.714;8.994;2022-07-06T04:07:27;14.30;1.00
6662;DHT22;3367;48.714;8.994;2022-07-06T04:09:54;14.30;1.00
6662;DHT22;3367;48.714;8.994;2022-07-06T04:12:22;14.40;1.00
6662;DHT22;3367;48.714;8.994;2022-07-06T04:14:49;14.40;1.00
6662;DHT22;3367;48.714;8.994;2022-07-06T04:17:16;14.40;1.00
6662;DHT22;3367;48.714;8.994;2022-07-06T04:20:00;14.50;1.00
6662;DHT22;3367;48.714;8.994;2022-07-06T04:22:27;14.50;1.00
6662;DHT22;3367;48.714;8.994;2022-07-06T04:24:54;14.50;1.00
6662;DHT22;3367;48.714;8.994;2022-07-06T04:27:22;14.60;1.00
6662;DHT22;3367;48.714;8.994;2022-07-06T04:29:49;14.70;1.00
6662;DHT22;3367;48.714;8.994;2022-07-06T04:32:15;14.70;1.00
6662;DHT22;3367;48.714;8.994;2022-07-06T04:34:42;14.80;1.00
6662;DHT22;3367;48.714;8.994;2022-07-06T04:37:09;14.80;1.00
6662;DHT22;3367;48.714;8.994;2022-07-06T04:39:35;14.80;1.00
6662;DHT22;3367;48.714;8.994;2022-07-06T04:42:03;15.00;1.00
6662;DHT22;3367;48.714;8.994;2022-07-06T04:44:31;14.90;1.00
6662;DHT22;3367;48.714;8.994;2022-07-06T04:46:58;15.00;1.00
6662;DHT22;3367;48.714;8.994;2022-07-06T04:49:24;15.00;1.00
6662;DHT22;3367;48.714;8.994;2022-07-06T04:51:51;15.00;1.00
6662;DHT22;3367;48.714;8.994;2022-07-06T04:54:18;15.00;1.00
6662;DHT22;3367;48.714;8.994;2022-07-06T04:56:44;15.10;1.00
6662;DHT22;3367;48.714;8.994;2022-07-06T04:59:12;15.20;1.00
6662;DHT22;3367;48.714;8.994;2022-07-06T05:01:40;15.40;1.00
6662;DHT22;3367;48.714;8.994;2022-07-06T05:04:07;15.30;1.00
6662;DHT22;3367;48.714;8.994;2022-07-06T05:06:33;15.30;1.00
6662;DHT22;3367;48.714;8.994;2022-07-06T05:09:00;15.30;1.00
6662;DHT22;3367;48.714;8.994;2022-07-06T05:11:28;15.20;1.00
6662;DHT22;3367;48.714;8.994;2022-07-06T05:13:54;15.40;1.00
6662;DHT22;3367;48.714;8.994;2022-07-06T05:16:21;15.50;1.00
6662;DHT22;3367;48.714;8.994;2022-07-06T05:18:49;15.60;1.00
6662;DHT22;3367;48.714;8.994;2022-07-06T05:21:16;15.60;1.00
6662;DHT22;3367;48.714;8.994;2022-07-06T05:23:43;15.80;1.00
6662;DHT22;3367;48.714;8.994;2022-07-06T05:26:10;16.20;1.00
6662;DHT22;3367;48.714;8.994;2022-07-06T05:28:36;16.50;1.00
6662;DHT22;3367;48.714;8.994;2022-07-06T05:31:03;16.90;1.00
6662;DHT22;3367;48.714;8.994;2022-07-06T05:33:30;17.50;1.00
6662;DHT22;3367;48.714;8.994;2022-07-06T05:35:58;17.90;1.00
6662;DHT22;3367;48.714;8.994;2022-07-06T05:38:25;18.10;1.00
6662;DHT22;3367;48.714;8.994;2022-07-06T05:40:52;18.10;1.00
6662;DHT22;3367;48.714;8.994;2022-07-06T05:43:18;18.20;1.00
6662;DHT22;3367;48.714;8.994;2022-07-06T05:45:45;18.40;1.00
6662;DHT22;3367;48.714;8.994;2022-07-06T05:48:12;18.30;1.00
6662;DHT22;3367;48.714;8.994;2022-07-06T05:50:57;18.30;1.00
6662;DHT22;3367;48.714;8.994;2022-07-06T05:53:24;18.60;1.00
6662;DHT22;3367;48.714;8.994;2022-07-06T05:55:51;18.70;1.00
6662;DHT22;3367;48.714;8.994;2022-07-06T05:58:18;18.80;1.00
6662;DHT22;3367;48.714;8.994;2022-07-06T06:00:45;18.80;1.00
6662;DHT22;3367;48.714;8.994;2022-07-06T06:03:12;19.10;1.00
6662;DHT22;3367;48.714;8.994;2022-07-06T06:05:38;19.10;1.00
6662;DHT22;3367;48.714;8.994;2022-07-06T06:08:07;19.10;1.00
6662;DHT22;3367;48.714;8.994;2022-07-06T06:10:34;19.30;1.00
6662;DHT22;3367;48.714;8.994;2022-07-06T06:13:00;19.20;1.00
6662;DHT22;3367;48.714;8.994;2022-07-06T06:15:27;19.20;1.00
6662;DHT22;3367;48.714;8.994;2022-07-06T06:17:54;19.30;1.00
6662;DHT22;3367;48.714;8.994;2022-07-06T06:20:21;19.20;1.00
6662;DHT22;3367;48.714;8.994;2022-07-06T06:22:49;19.30;1.00
6662;DHT22;3367;48.714;8.994;2022-07-06T06:25:19;19.50;1.00
6662;DHT22;3367;48.714;8.994;2022-07-06T06:27:46;19.40;1.00
6662;DHT22;3367;48.714;8.994;2022-07-06T06:30:13;19.90;1.00
6662;DHT22;3367;48.714;8.994;2022-07-06T06:32:40;20.40;1.00
6662;DHT22;3367;48.714;8.994;2022-07-06T06:35:08;20.70;1.00
6662;DHT22;3367;48.714;8.994;2022-07-06T06:37:35;20.80;1.00
6662;DHT22;3367;48.714;8.994;2022-07-06T06:40:02;21.00;1.00
6662;DHT22;3367;48.714;8.994;2022-07-06T06:42:30;21.10;1.00
6662;DHT22;3367;48.714;8.994;2022-07-06T06:44:57;20.70;1.00
6662;DHT22;3367;48.714;8.994;2022-07-06T06:47:24;20.20;1.00
6662;DHT22;3367;48.714;8.994;2022-07-06T06:49:51;20.50;1.00
6662;DHT22;3367;48.714;8.994;2022-07-06T06:52:17;20.10;1.00
6662;DHT22;3367;48.714;8.994;2022-07-06T06:54:44;20.10;1.00
6662;DHT22;3367;48.714;8.994;2022-07-06T06:57:11;20.60;1.00
6662;DHT22;3367;48.714;8.994;2022-07-06T06:59:39;20.70;1.00
6662;DHT22;3367;48.714;8.994;2022-07-06T07:02:06;20.60;1.00
6662;DHT22;3367;48.714;8.994;2022-07-06T07:04:32;20.30;1.00
6662;DHT22;3367;48.714;8.994;2022-07-06T07:06:59;19.90;1.00
6662;DHT22;3367;48.714;8.994;2022-07-06T07:09:26;19.90;1.00
6662;DHT22;3367;48.714;8.994;2022-07-06T07:11:53;20.10;1.00
6662;DHT22;3367;48.714;8.994;2022-07-06T07:14:20;20.10;1.00
6662;DHT22;3367;48.714;8.994;2022-07-06T07:16:48;20.60;1.00
6662;DHT22;3367;48.714;8.994;2022-07-06T07:19:15;21.10;1.00
6662;DHT22;3367;48.714;8.994;2022-07-06T07:21:42;21.30;1.00
6662;DHT22;3367;48.714;8.994;2022-07-06T07:24:08;21.40;1.00
6662;DHT22;3367;48.714;8.994;2022-07-06T07:26:35;21.10;1.00
6662;DHT22;3367;48.714;8.994;2022-07-06T07:29:02;20.90;1.00
6662;DHT22;3367;48.714;8.994;2022-07-06T07:31:29;20.70;1.00
6662;DHT22;3367;48.714;8.994;2022-07-06T07:33:57;20.70;1.00
6662;DHT22;3367;48.714;8.994;2022-07-06T07:36:24;20.70;1.00
6662;DHT22;3367;48.714;8.994;2022-07-06T07:38:51;20.90;1.00
6662;DHT22;3367;48.714;8.994;2022-07-06T07:41:17;20.70;1.00
6662;DHT22;3367;48.714;8.994;2022-07-06T07:43:44;21.00;1.00
6662;DHT22;3367;48.714;8.994;2022-07-06T07:46:11;21.10;1.00
6662;DHT22;3367;48.714;8.994;2022-07-06T07:48:38;21.70;1.00
6662;DHT22;3367;48.714;8.994;2022-07-06T07:51:06;21.90;1.00
6662;DHT22;3367;48.714;8.994;2022-07-06T07:53:32;21.80;1.00
6662;DHT22;3367;48.714;8.994;2022-07-06T07:56:00;21.90;1.00
6662;DHT22;3367;48.714;8.994;2022-07-06T07:58:27;21.80;1.00
6662;DHT22;3367;48.714;8.994;2022-07-06T08:00:54;22.10;1.00
6662;DHT22;3367;48.714;8.994;2022-07-06T08:03:21;22.20;1.00
6662;DHT22;3367;48.714;8.994;2022-07-06T08:05:48;21.90;1.00
6662;DHT22;3367;48.714;8.994;2022-07-06T08:08:17;22.20;1.00
6662;DHT22;3367;48.714;8.994;2022-07-06T08:10:44;22.30;1.00
6662;DHT22;3367;48.714;8.994;2022-07-06T08:13:11;22.60;1.00
6662;DHT22;3367;48.714;8.994;2022-07-06T08:15:40;22.80;1.00
6662;DHT22;3367;48.714;8.994;2022-07-06T08:18:07;23.20;1.00
6662;DHT22;3367;48.714;8.994;2022-07-06T08:20:35;23.50;1.00
6662;DHT22;3367;48.714;8.994;2022-07-06T08:23:02;23.20;1.00
6662;DHT22;3367;48.714;8.994;2022-07-06T08:25:30;22.70;1.00
6662;DHT22;3367;48.714;8.994;2022-07-06T08:27:57;22.60;1.00
6662;DHT22;3367;48.714;8.994;2022-07-06T08:30:24;22.60;1.00
6662;DHT22;3367;48.714;8.994;2022-07-06T08:32:51;22.50;1.00
6662;DHT22;3367;48.714;8.994;2022-07-06T08:35:18;22.30;1.00
6662;DHT22;3367;48.714;8.994;2022-07-06T08:37:45;22.00;1.00
6662;DHT22;3367;48.714;8.994;2022-07-06T08:40:12;21.90;1.00
6662;DHT22;3367;48.714;8.994;2022-07-06T08:42:42;22.30;1.00
6662;DHT22;3367;48.714;8.994;2022-07-06T08:45:10;22.50;1.00
6662;DHT22;3367;48.714;8.994;2022-07-06T08:47:37;22.80;1.00
6662;DHT22;3367;48.714;8.994;2022-07-06T08:50:06;22.50;1.00
6662;DHT22;3367;48.714;8.994;2022-07-06T08:52:34;22.30;1.00
6662;DHT22;3367;48.714;8.994;2022-07-06T08:55:02;22.30;1.00
6662;DHT22;3367;48.714;8.994;2022-07-06T08:57:29;22.30;1.00
6662;DHT22;3367;48.714;8.994;2022-07-06T08:59:57;22.30;1.00
6662;DHT22;3367;48.714;8.994;2022-07-06T09:02:25;22.20;1.00
6662;DHT22;3367;48.714;8.994;2022-07-06T09:04:55;22.00;1.00
6662;DHT22;3367;48.714;8.994;2022-07-06T09:07:24;21.80;1.00
6662;DHT22;3367;48.714;8.994;2022-07-06T09:09:54;22.00;1.00
6662;DHT22;3367;48.714;8.994;2022-07-06T09:12:21;22.10;1.00
6662;DHT22;3367;48.714;8.994;2022-07-06T09:14:48;21.90;1.00
6662;DHT22;3367;48.714;8.994;2022-07-06T09:17:16;21.90;1.00
6662;DHT22;3367;48.714;8.994;2022-07-06T09:19:45;22.00;1.00
6662;DHT22;3367;48.714;8.994;2022-07-06T09:22:25;22.20;1.00
6662;DHT22;3367;48.714;8.994;2022-07-06T09:24:52;22.30;1.00
6662;DHT22;3367;48.714;8.994;2022-07-06T09:27:18;22.30;1.00
6662;DHT22;3367;48.714;8.994;2022-07-06T09:29:45;22.30;1.00
6662;DHT22;3367;48.714;8.994;2022-07-06T09:32:12;21.90;1.00
6662;DHT22;3367;48.714;8.994;2022-07-06T09:34:43;21.60;1.00
6662;DHT22;3367;48.714;8.994;2022-07-06T09:37:10;21.50;1.00
6662;DHT22;3367;48.714;8.994;2022-07-06T09:39:36;21.70;1.00
6662;DHT22;3367;48.714;8.994;2022-07-06T09:42:05;21.50;1.00
6662;DHT22;3367;48.714;8.994;2022-07-06T09:44:35;21.40;1.00
6662;DHT22;3367;48.714;8.994;2022-07-06T09:47:04;21.40;1.00
6662;DHT22;3367;48.714;8.994;2022-07-06T09:49:31;21.60;1.00
6662;DHT22;3367;48.714;8.994;2022-07-06T09:52:01;21.60;1.00
6662;DHT22;3367;48.714;8.994;2022-07-06T09:54:28;21.70;1.00
6662;DHT22;3367;48.714;8.994;2022-07-06T09:56:56;21.60;1.00
6662;DHT22;3367;48.714;8.994;2022-07-06T09:59:24;21.50;1.00
6662;DHT22;3367;48.714;8.994;2022-07-06T10:01:53;21.50;1.00
6662;DHT22;3367;48.714;8.994;2022-07-06T10:04:20;21.50;1.00
6662;DHT22;3367;48.714;8.994;2022-07-06T10:06:47;21.70;1.00
6662;DHT22;3367;48.714;8.994;2022-07-06T10:09:16;21.70;1.00
6662;DHT22;3367;48.714;8.994;2022-07-06T10:11:48;21.80;1.00
6662;DHT22;3367;48.714;8.994;2022-07-06T10:14:18;22.00;1.00
6662;DHT22;3367;48.714;8.994;2022-07-06T10:16:47;21.90;1.00
6662;DHT22;3367;48.714;8.994;2022-07-06T10:19:18;22.00;1.00
6662;DHT22;3367;48.714;8.994;2022-07-06T10:21:45;21.60;1.00
6662;DHT22;3367;48.714;8.994;2022-07-06T10:24:12;21.40;1.00
6662;DHT22;3367;48.714;8.994;2022-07-06T10:26:42;21.20;1.00
6662;DHT22;3367;48.714;8.994;2022-07-06T10:29:08;21.20;1.00
6662;DHT22;3367;48.714;8.994;2022-07-06T10:31:43;21.20;1.00
6662;DHT22;3367;48.714;8.994;2022-07-06T10:34:12;21.20;1.00
6662;DHT22;3367;48.714;8.994;2022-07-06T10:36:39;21.30;1.00
6662;DHT22;3367;48.714;8.994;2022-07-06T10:39:06;21.70;1.00
6662;DHT22;3367;48.714;8.994;2022-07-06T10:41:48;22.00;1.00
6662;DHT22;3367;48.714;8.994;2022-07-06T10:44:16;22.20;1.00
6662;DHT22;3367;48.714;8.994;2022-07-06T10:46:50;22.00;1.00
6662;DHT22;3367;48.714;8.994;2022-07-06T10:49:18;21.90;1.00
6662;DHT22;3367;48.714;8.994;2022-07-06T10:51:44;22.00;1.00
6662;DHT22;3367;48.714;8.994;2022-07-06T10:54:12;22.30;1.00
6662;DHT22;3367;48.714;8.994;2022-07-06T10:56:40;22.10;1.00
6662;DHT22;3367;48.714;8.994;2022-07-06T10:59:13;22.20;1.00
6662;DHT22;3367;48.714;8.994;2022-07-06T11:01:40;22.30;1.00
6662;DHT22;3367;48.714;8.994;2022-07-06T11:04:09;22.50;1.00
6662;DHT22;3367;48.714;8.994;2022-07-06T11:06:37;22.20;1.00
6662;DHT22;3367;48.714;8.994;2022-07-06T11:09:06;22.10;1.00
6662;DHT22;3367;48.714;8.994;2022-07-06T11:11:41;21.90;1.00
6662;DHT22;3367;48.714;8.994;2022-07-06T11:14:10;21.70;1.00
6662;DHT22;3367;48.714;8.994;2022-07-06T11:17:00;21.80;1.00
6662;DHT22;3367;48.714;8.994;2022-07-06T11:19:28;21.70;1.00
6662;DHT22;3367;48.714;8.994;2022-07-06T11:21:56;21.90;1.00
6662;DHT22;3367;48.714;8.994;2022-07-06T11:24:25;22.10;1.00
6662;DHT22;3367;48.714;8.994;2022-07-06T11:26:52;22.10;1.00
6662;DHT22;3367;48.714;8.994;2022-07-06T11:29:21;22.20;1.00
6662;DHT22;3367;48.714;8.994;2022-07-06T11:31:51;22.00;1.00
6662;DHT22;3367;48.714;8.994;2022-07-06T11:34:20;22.00;1.00
6662;DHT22;3367;48.714;8.994;2022-07-06T11:36:48;21.90;1.00
6662;DHT22;3367;48.714;8.994;2022-07-06T11:39:15;21.90;1.00
6662;DHT22;3367;48.714;8.994;2022-07-06T11:41:42;21.90;1.00
6662;DHT22;3367;48.714;8.994;2022-07-06T11:44:09;22.00;1.00
6662;DHT22;3367;48.714;8.994;2022-07-06T11:46:36;22.20;1.00
6662;DHT22;3367;48.714;8.994;2022-07-06T11:49:06;22.40;1.00
6662;DHT22;3367;48.714;8.994;2022-07-06T11:51:36;22.20;1.00
6662;DHT22;3367;48.714;8.994;2022-07-06T11:54:10;21.80;1.00
6662;DHT22;3367;48.714;8.994;2022-07-06T11:56:38;21.70;1.00
6662;DHT22;3367;48.714;8.994;2022-07-06T11:59:11;21.70;1.00
6662;DHT22;3367;48.714;8.994;2022-07-06T12:01:38;21.80;1.00
6662;DHT22;3367;48.714;8.994;2022-07-06T12:04:08;21.90;1.00
6662;DHT22;3367;48.714;8.994;2022-07-06T12:06:35;22.10;1.00
6662;DHT22;3367;48.714;8.994;2022-07-06T12:09:02;22.20;1.00
6662;DHT22;3367;48.714;8.994;2022-07-06T12:11:33;22.10;1.00
6662;DHT22;3367;48.714;8.994;2022-07-06T12:14:01;22.00;1.00
6662;DHT22;3367;48.714;8.994;2022-07-06T12:16:30;22.00;1.00
6662;DHT22;3367;48.714;8.994;2022-07-06T12:18:57;22.00;1.00
6662;DHT22;3367;48.714;8.994;2022-07-06T12:21:25;22.00;1.00
6662;DHT22;3367;48.714;8.994;2022-07-06T12:23:54;21.90;1.00
6662;DHT22;3367;48.714;8.994;2022-07-06T12:26:23;21.70;1.00
6662;DHT22;3367;48.714;8.994;2022-07-06T12:29:01;21.50;1.00
6662;DHT22;3367;48.714;8.994;2022-07-06T12:31:32;21.70;1.00
6662;DHT22;3367;48.714;8.994;2022-07-06T12:33:59;21.70;1.00
6662;DHT22;3367;48.714;8.994;2022-07-06T12:50:04;21.90;1.00
6662;DHT22;3367;48.714;8.994;2022-07-06T12:52:32;21.90;1.00
6662;DHT22;3367;48.714;8.994;2022-07-06T12:55:00;22.00;1.00
6662;DHT22;3367;48.714;8.994;2022-07-06T12:57:27;21.90;1.00
6662;DHT22;3367;48.714;8.994;2022-07-06T13:00:09;21.80;1.00
6662;DHT22;3367;48.714;8.994;2022-07-06T13:02:36;21.90;1.00
6662;DHT22;3367;48.714;8.994;2022-07-06T13:05:06;21.80;1.00
6662;DHT22;3367;48.714;8.994;2022-07-06T13:07:35;21.80;1.00
6662;DHT22;3367;48.714;8.994;2022-07-06T13:10:05;21.70;1.00
6662;DHT22;3367;48.714;8.994;2022-07-06T13:12:34;21.40;1.00
6662;DHT22;3367;48.714;8.994;2022-07-06T13:15:01;21.20;1.00
6662;DHT22;3367;48.714;8.994;2022-07-06T13:17:27;21.10;1.00
6662;DHT22;3367;48.714;8.994;2022-07-06T13:19:54;21.10;1.00
6662;DHT22;3367;48.714;8.994;2022-07-06T13:22:22;21.00;1.00
6662;DHT22;3367;48.714;8.994;2022-07-06T13:24:49;21.00;1.00
6662;DHT22;3367;48.714;8.994;2022-07-06T13:27:16;21.10;1.00
6662;DHT22;3367;48.714;8.994;2022-07-06T13:29:42;21.10;1.00
6662;DHT22;3367;48.714;8.994;2022-07-06T13:32:09;21.20;1.00
6662;DHT22;3367;48.714;8.994;2022-07-06T13:34:36;21.40;1.00
6662;DHT22;3367;48.714;8.994;2022-07-06T13:37:03;21.40;1.00
6662;DHT22;3367;48.714;8.994;2022-07-06T13:39:32;21.40;1.00
6662;DHT22;3367;48.714;8.994;2022-07-06T13:41:59;21.30;1.00
6662;DHT22;3367;48.714;8.994;2022-07-06T13:44:26;21.20;1.00
6662;DHT22;3367;48.714;8.994;2022-07-06T13:46:53;21.30;1.00
6662;DHT22;3367;48.714;8.994;2022-07-06T13:49:19;21.40;1.00
6662;DHT22;3367;48.714;8.994;2022-07-06T13:51:46;21.20;1.00
6662;DHT22;3367;48.714;8.994;2022-07-06T13:54:13;21.40;1.00
6662;DHT22;3367;48.714;8.994;2022-07-06T13:56:41;21.40;1.00
6662;DHT22;3367;48.714;8.994;2022-07-06T13:59:08;21.50;1.00
6662;DHT22;3367;48.714;8.994;2022-07-06T14:01:35;21.50;1.00
6662;DHT22;3367;48.714;8.994;2022-07-06T14:04:01;21.50;1.00
6662;DHT22;3367;48.714;8.994;2022-07-06T14:06:28;21.70;1.00
6662;DHT22;3367;48.714;8.994;2022-07-06T14:08:55;21.50;1.00
6662;DHT22;3367;48.714;8.994;2022-07-06T14:11:22;21.50;1.00
6662;DHT22;3367;48.714;8.994;2022-07-06T14:13:50;21.60;1.00
6662;DHT22;3367;48.714;8.994;2022-07-06T14:16:16;21.50;1.00
6662;DHT22;3367;48.714;8.994;2022-07-06T14:18:43;21.40;1.00
6662;DHT22;3367;48.714;8.994;2022-07-06T14:21:10;21.50;1.00
6662;DHT22;3367;48.714;8.994;2022-07-06T14:23:37;21.50;1.00
6662;DHT22;3367;48.714;8.994;2022-07-06T14:26:04;21.60;1.00
6662;DHT22;3367;48.714;8.994;2022-07-06T14:28:31;21.60;1.00
6662;DHT22;3367;48.714;8.994;2022-07-06T14:30:59;21.70;1.00
6662;DHT22;3367;48.714;8.994;2022-07-06T14:33:28;21.80;1.00
6662;DHT22;3367;48.714;8.994;2022-07-06T14:35:54;21.90;1.00
6662;DHT22;3367;48.714;8.994;2022-07-06T14:38:21;22.00;1.00
6662;DHT22;3367;48.714;8.994;2022-07-06T14:40:49;21.80;1.00
6662;DHT22;3367;48.714;8.994;2022-07-06T14:43:16;21.70;1.00
6662;DHT22;3367;48.714;8.994;2022-07-06T14:45:43;21.80;1.00
6662;DHT22;3367;48.714;8.994;2022-07-06T14:48:12;22.00;1.00
6662;DHT22;3367;48.714;8.994;2022-07-06T14:50:39;21.60;1.00
6662;DHT22;3367;48.714;8.994;2022-07-06T14:53:06;21.60;1.00
6662;DHT22;3367;48.714;8.994;2022-07-06T14:55:33;21.60;1.00
6662;DHT22;3367;48.714;8.994;2022-07-06T14:58:00;21.50;1.00
6662;DHT22;3367;48.714;8.994;2022-07-06T15:00:27;21.60;1.00
6662;DHT22;3367;48.714;8.994;2022-07-06T15:02:53;21.60;1.00
6662;DHT22;3367;48.714;8.994;2022-07-06T15:05:21;21.50;1.00
6662;DHT22;3367;48.714;8.994;2022-07-06T15:07:48;21.60;1.00
6662;DHT22;3367;48.714;8.994;2022-07-06T15:10:15;21.60;1.00
6662;DHT22;3367;48.714;8.994;2022-07-06T15:12:42;21.70;1.00
6662;DHT22;3367;48.714;8.994;2022-07-06T15:15:09;21.70;1.00
6662;DHT22;3367;48.714;8.994;2022-07-06T15:17:36;21.70;1.00
6662;DHT22;3367;48.714;8.994;2022-07-06T15:20:03;21.90;1.00
6662;DHT22;3367;48.714;8.994;2022-07-06T15:22:32;21.90;1.00
6662;DHT22;3367;48.714;8.994;2022-07-06T15:25:01;21.90;1.00
6662;DHT22;3367;48.714;8.994;2022-07-06T15:27:28;21.90;1.00
6662;DHT22;3367;48.714;8.994;2022-07-06T15:29:55;22.00;1.00
6662;DHT22;3367;48.714;8.994;2022-07-06T15:32:22;22.00;1.00
6662;DHT22;3367;48.714;8.994;2022-07-06T15:34:48;22.00;1.00
6662;DHT22;3367;48.714;8.994;2022-07-06T15:37:15;22.10;1.00
6662;DHT22;3367;48.714;8.994;2022-07-06T15:39:44;22.20;1.00
6662;DHT22;3367;48.714;8.994;2022-07-06T15:42:10;22.20;1.00
6662;DHT22;3367;48.714;8.994;2022-07-06T15:44:37;22.10;1.00
6662;DHT22;3367;48.714;8.994;2022-07-06T15:47:05;22.10;1.00
6662;DHT22;3367;48.714;8.994;2022-07-06T15:49:33;22.10;1.00
6662;DHT22;3367;48.714;8.994;2022-07-06T15:52:00;21.90;1.00
6662;DHT22;3367;48.714;8.994;2022-07-06T15:54:27;22.00;1.00
6662;DHT22;3367;48.714;8.994;2022-07-06T15:56:56;22.10;1.00
6662;DHT22;3367;48.714;8.994;2022-07-06T15:59:22;22.20;1.00
6662;DHT22;3367;48.714;8.994;2022-07-06T16:01:49;22.20;1.00
6662;DHT22;3367;48.714;8.994;2022-07-06T16:04:16;22.30;1.00
6662;DHT22;3367;48.714;8.994;2022-07-06T16:06:44;22.10;1.00
6662;DHT22;3367;48.714;8.994;2022-07-06T16:09:11;22.20;1.00
6662;DHT22;3367;48.714;8.994;2022-07-06T16:11:37;22.10;1.00
6662;DHT22;3367;48.714;8.994;2022-07-06T16:14:05;22.00;1.00
6662;DHT22;3367;48.714;8.994;2022-07-06T16:16:32;21.90;1.00
6662;DHT22;3367;48.714;8.994;2022-07-06T16:18:59;21.90;1.00
6662;DHT22;3367;48.714;8.994;2022-07-06T16:21:26;21.80;1.00
6662;DHT22;3367;48.714;8.994;2022-07-06T16:23:52;21.80;1.00
6662;DHT22;3367;48.714;8.994;2022-07-06T16:26:19;21.70;1.00
6662;DHT22;3367;48.714;8.994;2022-07-06T16:28:46;21.70;1.00
6662;DHT22;3367;48.714;8.994;2022-07-06T16:31:14;21.70;1.00
6662;DHT22;3367;48.714;8.994;2022-07-06T16:33:42;21.70;1.00